Terminal Aerodrome Forecast
Issued by NWS

Home | Current Version | Previous Version | Text Only | Print | Product List | Glossary On
Versions: 1 2 3 4 5 6 7 8 9 10 11 12 13
000
FTUS46 KLOX 301100
TAFBUR
TAF
KBUR 301124Z 3012/3112 VRB03KT P6SM BKN200
     FM301800 17008KT P6SM BKN200
     FM310300 VRB03KT P6SM SCT200=

USA.gov is the U.S. government's official web portal to all federal, state and local government web resources and services.